Time;durP1;ratioP1;P1;durP2;ratioP2;P2;SDS_P1;SDS_P2;PMS_P1;PMS_P2;Temp;Humidity;BMP_temperature;BMP_pressure;BME280_temperature;BME280_humidity;BME280_pressure;Samples;Min_cycle;Max_cycle;Signal;HPM_P1;HPM_P2
2021/10/28 00:14:00;;;;;;;123.38;65.75;;;154.10;2252.80;;;;;;5042246;28;20025;-65
2021/10/28 00:16:30;;;;;;;104.82;54.22;;;154.10;2252.80;;;;;;5039967;28;20041;-63
2021/10/28 00:19:05;;;;;;;94.78;51.22;;;154.00;2252.80;;;;;;5041119;28;20029;-65
2021/10/28 00:21:34;;;;;;;99.47;50.03;;;154.00;2252.80;;;;;;5041877;28;20028;-65
2021/10/28 00:24:04;;;;;;;89.60;47.25;;;154.00;2252.80;;;;;;5041830;28;20036;-65
2021/10/28 00:26:32;;;;;;;97.97;51.50;;;153.90;2252.80;;;;;;5040456;28;20017;-65
2021/10/28 00:29:07;;;;;;;93.95;49.97;;;153.90;2252.80;;;;;;5061721;28;20473;-64
2021/10/28 00:31:36;;;;;;;100.28;52.53;;;153.90;2252.80;;;;;;5089883;28;20362;-64
2021/10/28 00:34:03;;;;;;;116.07;59.10;;;153.90;2252.80;;;;;;5091081;28;20115;-65
2021/10/28 00:36:29;;;;;;;123.88;61.70;;;153.90;2252.80;;;;;;5089338;28;20065;-65
2021/10/28 00:38:56;;;;;;;140.15;69.50;;;153.80;2252.80;;;;;;5092026;28;20024;-65
2021/10/28 00:41:23;;;;;;;144.80;72.20;;;153.80;2252.80;;;;;;5091875;28;20032;-63
2021/10/28 00:43:54;;;;;;;125.63;64.57;;;153.80;2252.80;;;;;;5090243;28;20051;-64
2021/10/28 00:46:22;;;;;;;127.53;63.28;;;153.80;2252.80;;;;;;5091840;28;20398;-64
2021/10/28 00:48:48;;;;;;;122.90;63.97;;;153.80;2252.80;;;;;;5091491;28;20028;-63
2021/10/28 00:51:17;;;;;;;111.65;58.45;;;153.80;2252.80;;;;;;5092100;28;20032;-64
2021/10/28 00:53:43;;;;;;;110.68;59.05;;;153.70;2252.80;;;;;;5092057;28;20051;-64
2021/10/28 00:56:10;;;;;;;110.90;56.65;;;153.70;2252.80;;;;;;5092071;28;20104;-65
2021/10/28 00:58:36;;;;;;;99.65;52.33;;;153.60;2252.80;;;;;;5092266;28;20017;-64
2021/10/28 01:01:04;;;;;;;89.82;49.97;;;128.90;2252.80;;;;;;5092085;28;20031;-65
2021/10/28 01:03:30;;;;;;;84.97;50.42;;;128.90;2252.80;;;;;;5089124;28;20396;-63
2021/10/28 01:05:57;;;;;;;92.10;51.58;;;128.80;2252.80;;;;;;5091874;28;20101;-64
2021/10/28 01:08:25;;;;;;;84.88;47.47;;;128.90;2252.80;;;;;;5091943;28;20046;-64
2021/10/28 01:10:51;;;;;;;88.00;47.47;;;128.80;2252.80;;;;;;5089208;28;20091;-64
2021/10/28 01:13:22;;;;;;;80.95;45.25;;;128.70;2252.80;;;;;;5091857;28;20095;-65
2021/10/28 01:15:48;;;;;;;71.80;43.88;;;128.70;2252.80;;;;;;5091760;28;20051;-64
2021/10/28 01:18:16;;;;;;;78.18;44.95;;;128.70;2252.80;;;;;;5091686;28;20151;-65
2021/10/28 01:20:48;;;;;;;85.25;46.72;;;128.70;2252.80;;;;;;5091829;28;20077;-63
2021/10/28 01:23:16;;;;;;;84.97;49.33;;;128.70;2252.80;;;;;;5089437;28;20484;-63
2021/10/28 01:25:56;;;;;;;88.93;51.53;;;128.70;2252.80;;;;;;5091652;28;20469;-63
2021/10/28 01:28:24;;;;;;;96.03;53.85;;;128.70;2252.80;;;;;;5090790;28;20035;-64
2021/10/28 01:30:54;;;;;;;98.00;55.25;;;128.60;2252.80;;;;;;5089809;28;20027;-62
2021/10/28 01:33:21;;;;;;;94.97;54.70;;;128.60;2252.80;;;;;;5091442;28;20143;-63
2021/10/28 01:35:47;;;;;;;96.47;53.67;;;128.50;2252.80;;;;;;5091823;28;20028;-65
2021/10/28 01:38:15;;;;;;;104.00;56.80;;;128.50;2252.80;;;;;;5091374;28;20542;-64
2021/10/28 01:40:42;;;;;;;100.88;54.45;;;128.50;2252.80;;;;;;5091353;28;20024;-63
2021/10/28 01:43:09;;;;;;;111.63;58.20;;;128.40;2252.80;;;;;;5088805;28;20024;-64
2021/10/28 01:45:35;;;;;;;101.00;55.22;;;128.40;2252.80;;;;;;5094342;28;20027;-64
2021/10/28 01:48:02;;;;;;;103.03;56.42;;;128.30;2252.80;;;;;;5095501;28;20028;-63
2021/10/28 01:50:28;;;;;;;118.10;59.67;;;128.30;2252.80;;;;;;5092547;28;20448;-63
2021/10/28 01:52:55;;;;;;;99.07;54.15;;;128.30;2252.80;;;;;;5096608;28;20036;-64
2021/10/28 01:55:21;;;;;;;97.28;53.55;;;128.20;2252.80;;;;;;5098096;28;20022;-65
2021/10/28 01:57:47;;;;;;;98.50;53.38;;;128.20;2252.80;;;;;;5098022;28;20093;-64
2021/10/28 02:00:16;;;;;;;98.32;54.63;;;128.20;2252.80;;;;;;5096814;28;20020;-65
2021/10/28 02:02:45;;;;;;;98.90;52.85;;;128.20;2252.80;;;;;;5096704;28;20055;-65
2021/10/28 02:05:15;;;;;;;96.05;53.92;;;128.20;2252.80;;;;;;5096721;28;20024;-64
2021/10/28 02:07:41;;;;;;;105.13;57.60;;;128.20;2252.80;;;;;;5096906;28;20477;-65
2021/10/28 02:10:08;;;;;;;116.78;59.33;;;128.20;2252.80;;;;;;5097354;28;20056;-65
2021/10/28 02:12:35;;;;;;;120.05;61.25;;;128.10;2252.80;;;;;;5097436;28;20028;-66
2021/10/28 02:15:02;;;;;;;124.15;61.53;;;128.10;2252.80;;;;;;5097175;28;20191;-65
2021/10/28 02:17:28;;;;;;;128.00;62.42;;;128.00;2252.80;;;;;;5096906;28;20047;-65
2021/10/28 02:19:53;;;;;;;124.38;65.40;;;128.00;2252.80;;;;;;5097220;28;20020;-63
2021/10/28 02:22:19;;;;;;;131.57;65.00;;;103.30;2227.20;;;;;;5097114;28;20023;-65
2021/10/28 02:24:45;;;;;;;142.88;75.10;;;128.00;2252.80;;;;;;5097134;28;20497;-64
2021/10/28 02:27:11;;;;;;;150.15;79.38;;;128.00;2252.80;;;;;;5096892;28;20566;-64
2021/10/28 02:29:37;;;;;;;142.35;70.60;;;128.00;2252.80;;;;;;5096435;28;20093;-64
2021/10/28 02:32:04;;;;;;;151.15;74.00;;;103.30;2227.20;;;;;;5096691;28;20041;-65
2021/10/28 02:34:30;;;;;;;158.55;82.68;;;128.00;2252.80;;;;;;5096484;28;20024;-65
2021/10/28 02:36:55;;;;;;;159.20;76.75;;;128.00;2252.80;;;;;;5096705;28;20028;-66
2021/10/28 02:39:21;;;;;;;172.13;73.10;;;128.00;2252.80;;;;;;5096743;28;20111;-65
2021/10/28 02:41:47;;;;;;;190.95;77.85;;;103.30;2227.20;;;;;;5095319;28;20067;-65
2021/10/28 02:44:13;;;;;;;153.80;69.38;;;128.00;2252.80;;;;;;5096724;28;20438;-65
2021/10/28 02:46:40;;;;;;;143.38;71.68;;;103.20;2227.20;;;;;;5096519;28;20030;-64
2021/10/28 02:49:11;;;;;;;156.57;77.03;;;103.20;2227.20;;;;;;5096404;28;20107;-65
2021/10/28 02:51:38;;;;;;;148.73;68.85;;;103.20;2227.20;;;;;;5096606;28;20028;-65
2021/10/28 02:54:04;;;;;;;136.95;68.75;;;103.20;2227.20;;;;;;5096698;28;20020;-64
2021/10/28 02:56:30;;;;;;;127.63;68.60;;;103.20;2227.20;;;;;;5095213;28;20059;-66
2021/10/28 02:58:56;;;;;;;206.63;79.50;;;103.10;2227.20;;;;;;5096405;28;20489;-65
2021/10/28 03:01:21;;;;;;;231.32;79.07;;;103.10;2227.20;;;;;;5096064;28;20032;-66
2021/10/28 03:03:47;;;;;;;148.48;77.50;;;103.10;2227.20;;;;;;5096263;28;20024;-65
2021/10/28 03:06:13;;;;;;;179.38;79.32;;;103.10;2227.20;;;;;;5096522;28;20111;-65
2021/10/28 03:08:39;;;;;;;189.10;81.43;;;103.00;2227.20;;;;;;5096286;28;20027;-62
2021/10/28 03:11:07;;;;;;;149.68;77.35;;;103.00;2227.20;;;;;;5095877;28;20161;-65
2021/10/28 03:13:34;;;;;;;141.88;76.70;;;103.00;2227.20;;;;;;5096156;28;20043;-65
2021/10/28 03:16:10;;;;;;;156.30;80.70;;;103.00;2227.20;;;;;;5096051;28;20519;-65
2021/10/28 03:26:48;;;;;;;321.20;89.38;;;102.80;2227.20;;;;;;5095961;28;20491;-64
2021/10/28 03:29:14;;;;;;;220.90;81.95;;;102.80;2227.20;;;;;;5093934;28;20028;-63
2021/10/28 03:31:39;;;;;;;201.20;80.82;;;102.70;2227.20;;;;;;5095876;28;20460;-60
2021/10/28 03:34:05;;;;;;;192.73;82.85;;;102.60;2227.20;;;;;;5095727;28;20381;-66
2021/10/28 04:29:32;;;;;;;164.32;85.00;;;77.40;2227.20;;;;;;4973621;28;20559;-65
2021/10/28 04:31:58;;;;;;;181.07;84.40;;;77.50;2227.20;;;;;;4973367;28;20089;-65
2021/10/28 04:34:24;;;;;;;211.13;93.63;;;77.60;2227.20;;;;;;4973526;28;20034;-65
2021/10/28 04:36:50;;;;;;;282.95;118.32;;;77.60;2227.20;;;;;;4997718;28;20484;-64
2021/10/28 04:39:16;;;;;;;375.95;104.60;;;77.60;2227.20;;;;;;5012456;28;20038;-65
2021/10/28 04:41:41;;;;;;;348.65;110.60;;;77.60;2227.20;;;;;;5012195;28;20030;-64
2021/10/28 04:44:09;;;;;;;471.20;117.03;;;77.60;2227.20;;;;;;5037151;28;20068;-65
2021/10/28 04:46:35;;;;;;;344.85;122.32;;;77.60;2227.20;;;;;;5093783;28;20031;-66
2021/10/28 04:49:01;;;;;;;337.40;132.20;;;77.70;2227.20;;;;;;5093963;28;20040;-65
2021/10/28 04:51:27;;;;;;;314.88;130.32;;;77.70;2227.20;;;;;;5094196;28;20462;-65
2021/10/28 04:53:52;;;;;;;304.08;118.25;;;77.60;2227.20;;;;;;5094500;28;20035;-64
2021/10/28 04:56:18;;;;;;;342.90;119.03;;;77.70;2227.20;;;;;;5093944;28;20052;-65
2021/10/28 04:58:44;;;;;;;264.15;114.25;;;77.60;2227.20;;;;;;5093809;28;20036;-64
2021/10/28 05:01:10;;;;;;;382.10;113.28;;;77.70;2227.20;;;;;;5093906;28;20024;-63
2021/10/28 05:03:36;;;;;;;392.55;111.20;;;77.70;2227.20;;;;;;5093982;28;20036;-66
2021/10/28 05:06:02;;;;;;;258.63;105.40;;;77.70;2227.20;;;;;;5093893;28;20020;-65
2021/10/28 05:08:28;;;;;;;254.88;100.35;;;77.60;2227.20;;;;;;5094109;28;20393;-65
2021/10/28 05:10:53;;;;;;;300.85;102.45;;;77.60;2227.20;;;;;;5093350;28;20089;-63
2021/10/28 05:13:19;;;;;;;227.98;96.60;;;77.60;2227.20;;;;;;5093774;28;20039;-65
2021/10/28 05:15:50;;;;;;;231.90;96.65;;;77.60;2227.20;;;;;;5093774;28;20055;-64
2021/10/28 05:18:17;;;;;;;233.80;97.43;;;77.40;2227.20;;;;;;5093640;28;20101;-65
2021/10/28 05:20:44;;;;;;;227.88;98.07;;;77.40;2227.20;;;;;;5093231;28;20057;-64
2021/10/28 05:23:11;;;;;;;319.60;105.47;;;77.40;2227.20;;;;;;5093628;28;20040;-65
2021/10/28 05:25:37;;;;;;;281.52;93.32;;;77.40;2227.20;;;;;;5093961;28;20027;-65
2021/10/28 05:28:03;;;;;;;223.07;95.20;;;77.30;2227.20;;;;;;5092781;28;20024;-64
2021/10/28 05:30:29;;;;;;;203.45;96.22;;;77.20;2227.20;;;;;;5093666;28;20272;-64
2021/10/28 05:33:00;;;;;;;217.63;83.53;;;77.30;2227.20;;;;;;5093274;28;20024;-64
2021/10/28 05:35:27;;;;;;;332.38;89.53;;;77.30;2227.20;;;;;;5093797;28;20020;-65
2021/10/28 05:37:53;;;;;;;336.98;92.38;;;77.40;2227.20;;;;;;5093883;28;20097;-65
2021/10/28 05:40:19;;;;;;;270.80;92.13;;;77.30;2227.20;;;;;;5093986;28;20089;-64
2021/10/28 05:42:49;;;;;;;308.52;96.60;;;77.40;2227.20;;;;;;5093588;28;20032;-64
2021/10/28 05:45:19;;;;;;;211.07;93.97;;;77.40;2227.20;;;;;;5091803;28;20040;-64
2021/10/28 05:47:45;;;;;;;344.80;110.75;;;77.40;2227.20;;;;;;5092141;28;20029;-63
2021/10/28 05:50:16;;;;;;;262.73;105.50;;;77.50;2227.20;;;;;;5092523;28;20024;-65
2021/10/28 05:52:42;;;;;;;239.30;100.25;;;77.60;2227.20;;;;;;5090120;28;20086;-65
2021/10/28 05:55:10;;;;;;;211.68;96.72;;;77.60;2227.20;;;;;;5092215;28;20027;-64
2021/10/28 05:57:36;;;;;;;216.18;101.47;;;77.70;2227.20;;;;;;5091894;28;20028;-63
2021/10/28 06:00:04;;;;;;;189.82;94.45;;;102.40;2227.20;;;;;;5092314;28;20020;-64
2021/10/28 06:02:30;;;;;;;208.52;97.95;;;102.50;2227.20;;;;;;5092392;28;20106;-64
2021/10/28 06:04:56;;;;;;;189.32;93.90;;;102.60;2227.20;;;;;;5092372;28;20103;-64
2021/10/28 06:07:21;;;;;;;154.55;84.32;;;102.70;2227.20;;;;;;5092147;28;20113;-65
2021/10/28 06:09:47;;;;;;;154.85;83.95;;;102.40;2227.20;;;;;;5092188;28;20458;-65
2021/10/28 06:12:13;;;;;;;149.38;82.50;;;102.80;2227.20;;;;;;5092176;28;20067;-64
2021/10/28 06:14:39;;;;;;;154.65;86.78;;;103.10;2227.20;;;;;;5089279;28;20035;-64
2021/10/28 06:17:09;;;;;;;174.10;95.90;;;128.00;2252.80;;;;;;5091897;28;20032;-64
2021/10/28 06:19:35;;;;;;;169.38;95.35;;;128.10;2252.80;;;;;;5092038;28;20031;-64
2021/10/28 06:22:05;;;;;;;229.82;121.80;;;128.30;2252.80;;;;;;5092165;28;20385;-64
2021/10/28 06:24:31;;;;;;;168.20;95.78;;;128.40;2252.80;;;;;;5092065;28;20024;-64
2021/10/28 06:26:57;;;;;;;191.32;101.80;;;128.60;2252.80;;;;;;5091860;28;20107;-64
2021/10/28 06:29:23;;;;;;;154.68;85.15;;;128.80;2252.80;;;;;;5092039;28;20171;-65
2021/10/28 06:31:50;;;;;;;148.32;83.45;;;128.90;2252.80;;;;;;5094749;28;20438;-65
2021/10/28 06:34:24;;;;;;;129.15;75.90;;;128.90;2252.80;;;;;;5095871;28;20031;-64
2021/10/28 06:36:50;;;;;;;132.13;77.13;;;128.80;2252.80;;;;;;5095629;28;20451;-63
2021/10/28 06:39:17;;;;;;;132.18;78.43;;;153.60;2252.80;;;;;;5095700;28;20051;-64
2021/10/28 06:41:43;;;;;;;155.90;88.70;;;153.70;2252.80;;;;;;5095399;28;20016;-64
2021/10/28 06:44:08;;;;;;;123.53;73.32;;;153.80;2252.80;;;;;;5095637;28;20028;-64
2021/10/28 06:46:35;;;;;;;126.60;80.32;;;153.80;2252.80;;;;;;5095394;28;20354;-63
2021/10/28 06:49:04;;;;;;;152.45;93.85;;;153.80;2252.80;;;;;;5095471;28;20013;-63
2021/10/28 06:51:32;;;;;;;137.25;85.88;;;153.90;2252.80;;;;;;5095527;28;20036;-65
2021/10/28 06:54:07;;;;;;;122.00;77.32;;;154.00;2252.80;;;;;;5095619;28;20020;-64
2021/10/28 06:56:59;;;;;;;102.15;66.47;;;154.20;2252.80;;;;;;5095441;28;20036;-65
2021/10/28 07:05:02;;;;;;;114.70;74.22;;;179.50;2252.80;;;;;;5096320;28;20508;-65
2021/10/28 07:07:30;;;;;;;107.85;71.57;;;205.10;2252.80;;;;;;5095874;28;20059;-61
2021/10/28 07:10:03;;;;;;;139.57;91.70;;;230.80;2252.80;;;;;;5094593;28;20024;-62
2021/10/28 07:15:08;;;;;;;113.05;80.07;;;307.60;2176.00;;;;;;5094877;28;20063;-62
2021/10/28 08:20:14;;;;;;;51.08;45.63;;;743.20;793.60;;;;;;5012832;28;20073;-63
2021/10/28 08:22:44;;;;;;;47.42;42.47;;;768.00;768.00;;;;;;5012526;28;20491;-67
2021/10/28 08:30:40;;;;;;;42.50;37.17;;;819.70;691.20;;;;;;5076434;28;20047;-63
2021/10/28 08:33:06;;;;;;;37.92;32.88;;;845.10;665.60;;;;;;5094453;28;20027;-66
2021/10/28 08:35:32;;;;;;;37.05;33.05;;;819.50;665.60;;;;;;5093459;28;20031;-66
2021/10/28 08:38:00;;;;;;;42.42;37.35;;;819.50;691.20;;;;;;5094486;28;20050;-64
2021/10/28 08:40:27;;;;;;;41.63;37.33;;;844.80;691.20;;;;;;5094709;28;20093;-63
2021/10/28 08:42:54;;;;;;;40.88;36.45;;;845.70;665.60;;;;;;5094027;28;20028;-63
2021/10/28 08:45:21;;;;;;;40.17;35.85;;;870.80;640.00;;;;;;5092998;28;20047;-63
2021/10/28 08:47:54;;;;;;;37.22;33.20;;;896.30;588.80;;;;;;5092894;28;20067;-65
2021/10/28 08:55:53;;;;;;;35.45;31.73;;;921.70;563.20;;;;;;5050009;28;20025;-63
2021/10/28 09:24:25;;;;;;;31.70;28.10;;;947.70;486.40;;;;;;4933438;29;20112;-64
2021/10/28 09:51:50;;;;;;;32.00;25.15;;;972.80;460.80;;;;;;5092581;28;20438;-65
2021/10/28 09:59:49;;;;;;;25.20;21.92;;;871.30;512.00;;;;;;5092336;28;20062;-65
2021/10/28 10:02:35;;;;;;;24.77;21.73;;;896.40;512.00;;;;;;5090825;28;20027;-65
2021/10/28 10:05:04;;;;;;;25.23;21.13;;;922.00;512.00;;;;;;5092155;28;20449;-63
2021/10/28 10:07:30;;;;;;;27.90;24.02;;;972.90;460.80;;;;;;5096255;28;20031;-63
2021/10/28 10:10:00;;;;;;;28.50;23.27;;;973.60;435.20;;;;;;5096119;28;20478;-61
2021/10/28 10:12:26;;;;;;;22.25;19.92;;;998.70;435.20;;;;;;5093615;28;20093;-63
2021/10/28 10:15:02;;;;;;;22.60;19.20;;;998.90;435.20;;;;;;5094088;28;20454;-63
2021/10/28 10:17:30;;;;;;;21.23;17.67;;;998.70;460.80;;;;;;5093400;28;20753;-63
2021/10/28 10:19:58;;;;;;;20.00;17.90;;;999.30;409.60;;;;;;5095655;28;20024;-60
2021/10/28 10:23:29;;;;;;;19.63;17.40;;;1024.10;409.60;;;;;;5095763;28;20346;-61
2021/10/28 10:26:04;;;;;;;21.30;18.02;;;998.60;435.20;;;;;;5088681;28;20097;-61
2021/10/28 12:44:14;;;;;;;15.02;11.30;;;973.60;384.00;;;;;;5008160;28;20033;-61
2021/10/28 12:54:50;;;;;;;13.25;10.90;;;972.80;409.60;;;;;;5010268;28;20022;-62
2021/10/28 14:20:05;;;;;;;19.20;12.35;;;512.50;998.40;;;;;;5003580;28;20032;-66
2021/10/28 14:31:01;;;;;;;19.20;12.07;;;512.20;1024.00;;;;;;5006249;28;20053;-66
2021/10/28 15:35:17;;;;;;;26.70;14.68;;;384.20;1408.00;;;;;;5105433;28;20073;-66
2021/10/28 15:40:55;;;;;;;35.88;23.15;;;359.10;1433.60;;;;;;5094015;28;20047;-65
2021/10/28 15:47:08;;;;;;;39.42;23.10;;;359.30;1459.20;;;;;;5093835;28;20273;-65
2021/10/28 15:57:27;;;;;;;222.98;73.93;;;358.70;1484.80;;;;;;5053411;28;20011;-65
2021/10/28 16:21:54;;;;;;;71.88;33.00;;;333.50;1612.80;;;;;;5053157;28;20269;-64
2021/10/28 16:24:26;;;;;;;66.22;34.53;;;333.40;1638.40;;;;;;5052993;28;20021;-64
2021/10/28 16:26:53;;;;;;;49.75;28.80;;;333.30;1638.40;;;;;;5052786;28;20029;-64
2021/10/28 16:29:19;;;;;;;44.63;23.20;;;333.30;1664.00;;;;;;5060569;28;20035;-65
2021/10/28 16:31:46;;;;;;;56.05;26.02;;;333.10;1664.00;;;;;;5074522;28;20025;-65
2021/10/28 16:34:13;;;;;;;36.30;21.30;;;332.90;1689.60;;;;;;5074369;28;20104;-64
2021/10/28 16:36:40;;;;;;;41.15;22.42;;;332.80;1689.60;;;;;;5074034;28;20024;-65
2021/10/28 16:39:10;;;;;;;52.13;27.20;;;332.80;1715.20;;;;;;5074760;28;20076;-65
2021/10/28 16:41:38;;;;;;;39.08;23.15;;;308.10;1689.60;;;;;;5074629;28;20094;-65
2021/10/28 16:44:05;;;;;;;50.10;26.10;;;308.10;1689.60;;;;;;5074416;28;20048;-65
2021/10/28 16:46:31;;;;;;;54.15;26.08;;;308.10;1689.60;;;;;;5074036;28;20040;-64
2021/10/28 16:48:58;;;;;;;42.70;22.27;;;308.00;1715.20;;;;;;5073762;28;20107;-65
2021/10/28 16:51:25;;;;;;;50.08;24.13;;;308.00;1715.20;;;;;;5074605;28;20025;-65
2021/10/28 16:53:51;;;;;;;48.08;25.48;;;307.90;1740.80;;;;;;5074353;28;20029;-65
2021/10/28 16:56:16;;;;;;;51.75;25.67;;;307.80;1740.80;;;;;;5074194;28;20026;-63
2021/10/28 16:58:42;;;;;;;47.05;24.90;;;307.80;1740.80;;;;;;5074456;28;20036;-65
2021/10/28 17:01:09;;;;;;;50.25;23.30;;;307.70;1766.40;;;;;;5074307;28;20429;-65
2021/10/28 17:03:36;;;;;;;41.15;22.80;;;307.60;1766.40;;;;;;5073642;28;20029;-64
2021/10/28 17:06:02;;;;;;;45.17;23.17;;;307.60;1766.40;;;;;;5073893;28;20035;-65
2021/10/28 17:08:31;;;;;;;44.72;24.55;;;307.50;1792.00;;;;;;5073953;28;20023;-64
2021/10/28 17:10:59;;;;;;;47.05;24.85;;;307.60;1792.00;;;;;;5072565;28;20036;-64
2021/10/28 17:13:25;;;;;;;45.35;25.27;;;307.50;1792.00;;;;;;5073810;28;20100;-65
2021/10/28 17:15:51;;;;;;;47.75;25.40;;;307.50;1792.00;;;;;;5071660;28;20048;-64
2021/10/28 17:18:17;;;;;;;41.65;25.10;;;307.40;1817.60;;;;;;5073595;28;20039;-65
2021/10/28 17:20:43;;;;;;;48.83;26.13;;;307.30;1817.60;;;;;;5073880;28;20036;-65
2021/10/28 17:23:14;;;;;;;44.38;26.45;;;307.30;1817.60;;;;;;5074142;28;20024;-64
2021/10/28 17:25:44;;;;;;;49.60;27.42;;;282.50;1817.60;;;;;;5073913;28;20465;-65
2021/10/28 17:28:10;;;;;;;49.33;27.48;;;282.50;1817.60;;;;;;5073929;28;20032;-64
2021/10/28 17:30:36;;;;;;;53.25;29.23;;;282.40;1843.20;;;;;;5073821;28;20028;-65
2021/10/28 17:33:03;;;;;;;104.07;38.88;;;282.40;1843.20;;;;;;5072416;28;20043;-64
2021/10/28 17:35:29;;;;;;;207.40;55.00;;;282.30;1868.80;;;;;;5073506;28;20024;-64
2021/10/28 17:37:55;;;;;;;101.72;41.47;;;282.30;1868.80;;;;;;5073645;28;20044;-65
2021/10/28 17:40:20;;;;;;;74.55;35.53;;;282.30;1868.80;;;;;;5073898;28;20416;-65
2021/10/28 17:42:48;;;;;;;57.03;32.60;;;282.20;1894.40;;;;;;5073572;28;20089;-65
2021/10/28 17:45:14;;;;;;;67.80;34.55;;;282.20;1894.40;;;;;;5073207;28;20501;-64
2021/10/28 17:47:42;;;;;;;65.32;36.28;;;282.20;1920.00;;;;;;5073653;28;20052;-64
2021/10/28 17:50:09;;;;;;;72.85;38.55;;;282.20;1920.00;;;;;;5073307;28;20104;-63
2021/10/28 17:52:36;;;;;;;65.85;39.33;;;282.30;1920.00;;;;;;5073548;28;20028;-64
2021/10/28 17:55:03;;;;;;;68.03;38.10;;;282.10;1971.20;;;;;;5073702;28;20043;-63
2021/10/28 17:57:29;;;;;;;70.32;39.15;;;282.10;1971.20;;;;;;5073538;28;20038;-65
2021/10/28 17:59:55;;;;;;;74.90;42.30;;;282.10;1996.80;;;;;;5073600;28;20074;-64
2021/10/28 18:02:21;;;;;;;89.05;47.08;;;282.10;2048.00;;;;;;5073407;28;20028;-64
2021/10/28 18:04:47;;;;;;;101.60;55.45;;;282.10;2048.00;;;;;;5073234;28;20017;-65
2021/10/28 18:07:13;;;;;;;101.82;53.65;;;282.00;2073.60;;;;;;5073455;28;20416;-64
2021/10/28 18:09:43;;;;;;;93.88;50.75;;;281.90;2099.20;;;;;;5073375;28;20016;-65
2021/10/28 18:12:10;;;;;;;92.90;49.40;;;281.90;2150.40;;;;;;5073220;28;20466;-64
2021/10/28 18:14:35;;;;;;;96.03;51.70;;;281.80;2176.00;;;;;;5072744;28;20035;-63
2021/10/28 18:17:01;;;;;;;105.32;56.70;;;281.80;2201.60;;;;;;5072844;28;20033;-63
2021/10/28 18:19:27;;;;;;;110.28;60.08;;;281.80;2252.80;;;;;;5072910;28;20032;-63
2021/10/28 18:21:55;;;;;;;107.03;60.55;;;281.70;2252.80;;;;;;5073454;28;20158;-64
2021/10/28 18:24:27;;;;;;;109.75;60.00;;;281.70;2278.40;;;;;;5073287;28;20063;-64
2021/10/28 18:26:54;;;;;;;122.68;68.50;;;281.60;2278.40;;;;;;5074975;28;20470;-64
2021/10/28 18:29:20;;;;;;;138.35;74.75;;;281.60;2278.40;;;;;;5077002;28;20028;-63
2021/10/28 18:31:46;;;;;;;144.05;78.88;;;281.60;2278.40;;;;;;5076878;28;20484;-64
2021/10/28 18:34:12;;;;;;;144.13;77.50;;;281.60;2278.40;;;;;;5076636;28;20485;-64
2021/10/28 18:36:38;;;;;;;126.97;70.90;;;281.60;2278.40;;;;;;5075506;28;20021;-64
2021/10/28 18:39:05;;;;;;;131.13;67.70;;;256.90;2252.80;;;;;;5075429;28;20115;-64
2021/10/28 18:41:32;;;;;;;146.88;73.88;;;256.80;2252.80;;;;;;5076946;28;20070;-62
2021/10/28 18:43:58;;;;;;;144.95;75.28;;;256.80;2252.80;;;;;;5076587;28;20527;-63
2021/10/28 18:46:24;;;;;;;155.35;77.43;;;256.70;2252.80;;;;;;5076650;28;20029;-64
2021/10/28 18:48:56;;;;;;;144.82;74.93;;;256.70;2252.80;;;;;;5076262;28;20016;-63
2021/10/28 18:51:22;;;;;;;238.55;89.15;;;256.60;2252.80;;;;;;5076582;28;20058;-64
2021/10/28 18:53:49;;;;;;;232.95;84.53;;;256.50;2252.80;;;;;;5076640;28;20088;-65
2021/10/28 18:56:19;;;;;;;198.73;77.05;;;256.40;2252.80;;;;;;5076061;28;20444;-63
2021/10/28 18:58:46;;;;;;;191.70;79.75;;;256.40;2252.80;;;;;;5076334;28;20033;-64
2021/10/28 19:01:15;;;;;;;162.95;70.90;;;256.40;2252.80;;;;;;5075172;28;20017;-64
2021/10/28 19:03:42;;;;;;;137.43;60.20;;;256.30;2252.80;;;;;;5076247;28;20537;-64
2021/10/28 19:06:09;;;;;;;123.45;56.97;;;256.20;2252.80;;;;;;5076588;28;20033;-65
2021/10/28 19:08:40;;;;;;;156.68;65.03;;;256.20;2252.80;;;;;;5076068;28;20549;-65
2021/10/28 19:11:09;;;;;;;141.35;58.03;;;256.10;2252.80;;;;;;5076158;28;20032;-64
2021/10/28 19:13:36;;;;;;;122.22;56.97;;;256.10;2252.80;;;;;;5074632;28;20497;-64
2021/10/28 19:16:02;;;;;;;117.07;55.80;;;256.00;2252.80;;;;;;5075871;28;20041;-63
2021/10/28 19:18:29;;;;;;;143.13;78.13;;;256.00;2252.80;;;;;;5075948;28;20063;-66
2021/10/28 19:20:55;;;;;;;180.80;96.30;;;256.00;2252.80;;;;;;5075826;28;20021;-64
2021/10/28 19:23:21;;;;;;;188.32;102.50;;;256.00;2252.80;;;;;;5075933;28;20486;-64
2021/10/28 19:25:48;;;;;;;187.13;102.28;;;231.30;2252.80;;;;;;5076209;28;20025;-64
2021/10/28 19:28:15;;;;;;;192.40;105.93;;;231.30;2252.80;;;;;;5075514;28;20538;-64
2021/10/28 19:30:49;;;;;;;221.65;120.10;;;231.20;2252.80;;;;;;5075727;28;20089;-64
2021/10/28 19:33:37;;;;;;;199.75;108.60;;;231.20;2252.80;;;;;;5076028;28;20051;-64
2021/10/28 19:36:09;;;;;;;192.63;102.55;;;231.20;2252.80;;;;;;5075741;28;20039;-64
2021/10/28 19:38:49;;;;;;;196.57;105.43;;;231.10;2252.80;;;;;;5073915;28;20036;-64
2021/10/28 19:46:35;;;;;;;219.55;110.85;;;231.00;2252.80;;;;;;5075804;28;20133;-64
2021/10/28 19:49:00;;;;;;;224.30;113.95;;;231.00;2252.80;;;;;;5075396;28;20490;-65
2021/10/28 19:51:27;;;;;;;230.07;111.80;;;231.00;2252.80;;;;;;5075762;28;20021;-63
2021/10/28 19:53:54;;;;;;;229.10;111.63;;;231.00;2252.80;;;;;;5075278;28;20048;-65
2021/10/28 19:56:21;;;;;;;239.88;116.53;;;230.90;2252.80;;;;;;5075086;28;20052;-64
2021/10/28 19:58:53;;;;;;;248.13;119.57;;;230.90;2252.80;;;;;;5075432;28;20111;-64
2021/10/28 20:06:41;;;;;;;;;;;;;;;;;;;;;
2021/10/28 20:22:21;;;;;;;191.40;93.50;;;230.60;2252.80;;;;;;5074864;28;20058;-62
2021/10/28 20:24:48;;;;;;;170.43;88.95;;;230.60;2252.80;;;;;;5074703;28;20024;-65
2021/10/28 20:27:14;;;;;;;154.30;78.45;;;230.50;2252.80;;;;;;5074568;28;20025;-64
2021/10/28 20:29:39;;;;;;;146.45;76.05;;;230.50;2252.80;;;;;;5074464;28;20103;-64
2021/10/28 20:32:05;;;;;;;155.38;78.82;;;230.40;2252.80;;;;;;5074741;28;20028;-64
2021/10/28 20:34:36;;;;;;;168.05;88.72;;;230.40;2252.80;;;;;;5074401;28;20161;-64
2021/10/28 20:37:09;;;;;;;199.57;100.70;;;230.40;2252.80;;;;;;5074679;28;20028;-64
2021/10/28 20:39:39;;;;;;;201.20;100.43;;;230.40;2252.80;;;;;;5074314;28;20033;-63
2021/10/28 20:42:12;;;;;;;242.38;116.90;;;205.70;2252.80;;;;;;5074562;28;20025;-63
2021/10/28 20:44:38;;;;;;;206.52;106.95;;;205.70;2252.80;;;;;;5074075;28;20036;-63
2021/10/28 20:47:04;;;;;;;227.10;115.25;;;205.70;2252.80;;;;;;5074309;28;20024;-63
2021/10/28 20:49:30;;;;;;;201.30;106.82;;;205.70;2252.80;;;;;;5074435;28;20024;-63
2021/10/28 20:51:57;;;;;;;191.55;100.88;;;205.60;2252.80;;;;;;5074437;28;20047;-64
2021/10/28 20:54:23;;;;;;;180.68;98.00;;;205.60;2252.80;;;;;;5072602;28;20258;-62
2021/10/28 20:56:54;;;;;;;203.55;102.35;;;205.60;2252.80;;;;;;5091524;28;20048;-64
2021/10/28 20:59:20;;;;;;;224.55;112.72;;;205.50;2252.80;;;;;;5094322;28;20036;-61
2021/10/28 21:01:46;;;;;;;216.13;105.55;;;205.50;2252.80;;;;;;5094381;28;20086;-66
2021/10/28 21:04:33;;;;;;;201.10;102.68;;;205.40;2252.80;;;;;;5093858;28;20030;-64
2021/10/28 21:07:04;;;;;;;191.18;98.13;;;205.40;2252.80;;;;;;5093119;28;20058;-68
2021/10/28 21:09:30;;;;;;;200.43;96.57;;;205.40;2252.80;;;;;;5093937;28;20109;-68
2021/10/28 21:11:59;;;;;;;195.68;100.90;;;205.30;2252.80;;;;;;5092963;28;20028;-66
2021/10/28 21:14:25;;;;;;;211.93;109.10;;;205.30;2252.80;;;;;;5084183;28;20021;-56
2021/10/28 21:16:51;;;;;;;206.65;106.22;;;205.30;2252.80;;;;;;5072859;28;20127;-57
2021/10/28 21:19:16;;;;;;;207.68;106.68;;;205.30;2252.80;;;;;;5095095;27;20039;-57
2021/10/28 21:21:44;;;;;;;204.55;111.28;;;205.20;2252.80;;;;;;5113759;28;20043;-62
2021/10/28 21:24:11;;;;;;;190.65;100.63;;;205.20;2252.80;;;;;;5112835;28;20186;-63
2021/10/28 21:26:37;;;;;;;173.50;92.45;;;205.20;2252.80;;;;;;5112247;28;20362;-67